Time;durP1;ratioP1;P1;durP2;ratioP2;P2;SDS_P1;SDS_P2;PMS_P1;PMS_P2;Temp;Humidity;BMP_temperature;BMP_pressure;BME280_temperature;BME280_humidity;BME280_pressure;Samples;Min_cycle;Max_cycle;Signal;HPM_P1;HPM_P2
2021/01/11 00:01:26;;;;;;;0.20;0.10;;;;;;;-5.63;100.00;101071.47;5041938;28;20458;-48
2021/01/11 00:03:53;;;;;;;0.20;0.10;;;;;;;-5.58;100.00;101064.84;5050849;28;20475;-48
2021/01/11 00:06:19;;;;;;;0.20;0.10;;;;;;;-5.66;100.00;101061.84;5041879;28;20944;-48
2021/01/11 00:08:45;;;;;;;0.20;0.10;;;;;;;-5.59;100.00;101056.19;5039376;28;20502;-48
2021/01/11 00:11:13;;;;;;;0.20;0.10;;;;;;;-5.78;100.00;101059.56;5044452;28;20451;-48
2021/01/11 00:13:42;;;;;;;0.20;0.10;;;;;;;-5.80;100.00;101062.88;5046138;28;20501;-48
2021/01/11 00:16:10;;;;;;;0.20;0.10;;;;;;;-5.88;100.00;101056.47;5042212;28;20485;-48
2021/01/11 00:18:38;;;;;;;0.20;0.10;;;;;;;-5.78;100.00;101049.19;5039144;28;21569;-48
2021/01/11 00:21:05;;;;;;;0.20;0.10;;;;;;;-5.68;100.00;101048.84;5042750;28;20451;-49
2021/01/11 00:23:31;;;;;;;0.20;0.10;;;;;;;-5.71;100.00;101040.06;5046042;28;21010;-48
2021/01/11 00:25:57;;;;;;;0.20;0.10;;;;;;;-5.62;100.00;101044.75;5042499;28;20546;-48
2021/01/11 00:28:24;;;;;;;0.20;0.10;;;;;;;-5.77;100.00;101043.22;5039578;28;20454;-48
2021/01/11 00:30:50;;;;;;;0.20;0.10;;;;;;;-5.78;100.00;101036.25;5043337;28;20447;-49
2021/01/11 00:33:16;;;;;;;0.20;0.20;;;;;;;-5.68;100.00;101035.00;5045932;28;20459;-48
2021/01/11 00:35:43;;;;;;;0.20;0.10;;;;;;;-5.85;100.00;101028.13;5041416;28;20470;-48
2021/01/11 00:38:09;;;;;;;0.20;0.10;;;;;;;-5.75;100.00;101028.66;5038850;28;20979;-48
2021/01/11 00:40:35;;;;;;;0.20;0.10;;;;;;;-5.82;100.00;101028.28;5043574;28;20498;-48
2021/01/11 00:43:02;;;;;;;0.20;0.10;;;;;;;-5.78;100.00;101027.59;5045979;28;20459;-48
2021/01/11 00:45:28;;;;;;;0.20;0.10;;;;;;;-5.78;100.00;101028.50;5041789;28;20537;-48
2021/01/11 00:47:54;;;;;;;0.20;0.10;;;;;;;-5.80;100.00;101024.06;5038809;28;20447;-48
2021/01/11 00:50:21;;;;;;;0.20;0.10;;;;;;;-5.79;100.00;101031.91;5042984;28;20456;-48
2021/01/11 00:52:47;;;;;;;0.20;0.10;;;;;;;-5.84;100.00;101029.91;5044161;28;20928;-47
2021/01/11 00:55:13;;;;;;;0.20;0.10;;;;;;;-5.90;100.00;101033.09;5043450;28;20478;-48
2021/01/11 00:57:42;;;;;;;0.20;0.10;;;;;;;-5.85;100.00;101035.91;5038878;28;20496;-48
2021/01/11 01:00:10;;;;;;;0.20;0.10;;;;;;;-5.79;100.00;101036.19;5044298;28;21061;-47
2021/01/11 01:02:36;;;;;;;0.20;0.10;;;;;;;-5.78;100.00;101037.97;5038444;28;20451;-48
2021/01/11 01:05:06;;;;;;;0.20;0.10;;;;;;;-5.74;100.00;101037.31;5040933;28;20886;-48
2021/01/11 01:07:32;;;;;;;0.63;0.63;;;;;;;-5.80;100.00;101056.00;5045456;28;20444;-48
2021/01/11 01:09:59;;;;;;;0.20;0.10;;;;;;;-5.76;100.00;101057.03;5045023;28;20492;-48
2021/01/11 01:12:25;;;;;;;0.20;0.10;;;;;;;-5.55;100.00;101062.38;5038783;28;20447;-49
2021/01/11 01:14:52;;;;;;;0.20;0.10;;;;;;;-5.76;100.00;101060.50;5039702;28;20503;-52
2021/01/11 01:17:18;;;;;;;0.20;0.10;;;;;;;-5.72;100.00;101067.63;5044076;28;20967;-51
2021/01/11 01:19:44;;;;;;;0.20;0.10;;;;;;;-5.76;100.00;101076.03;5045121;28;20494;-52
2021/01/11 01:22:10;;;;;;;0.20;0.10;;;;;;;-5.59;100.00;101084.66;5038709;28;20464;-52
2021/01/11 01:24:36;;;;;;;0.20;0.10;;;;;;;-5.56;100.00;101079.63;5039375;28;20471;-52
2021/01/11 01:27:03;;;;;;;0.20;0.10;;;;;;;-5.64;100.00;101083.53;5045580;28;20458;-52
2021/01/11 01:29:29;;;;;;;0.20;0.10;;;;;;;-5.69;100.00;101085.91;5045289;28;20814;-51
2021/01/11 01:31:55;;;;;;;1.03;1.03;;;;;;;-5.76;100.00;101088.97;5038505;28;20504;-51
2021/01/11 01:34:21;;;;;;;0.20;0.10;;;;;;;-5.81;100.00;101095.66;5042798;28;20474;-52
2021/01/11 01:36:47;;;;;;;0.20;0.10;;;;;;;-5.81;100.00;101094.75;5049139;28;20467;-52
2021/01/11 01:39:13;;;;;;;0.20;0.10;;;;;;;-5.72;100.00;101085.75;5048811;28;20497;-51
2021/01/11 01:41:39;;;;;;;0.20;0.10;;;;;;;-5.69;100.00;101085.91;5042154;28;20508;-52
2021/01/11 01:44:05;;;;;;;0.20;0.10;;;;;;;-5.98;100.00;101088.78;5042650;28;20468;-51
2021/01/11 01:46:32;;;;;;;0.20;0.10;;;;;;;-5.97;100.00;101087.97;5049341;28;20578;-51
2021/01/11 01:49:00;;;;;;;0.20;0.10;;;;;;;-5.88;100.00;101083.22;5049160;28;20486;-52
2021/01/11 01:51:26;;;;;;;0.20;0.10;;;;;;;-5.95;100.00;101080.28;5049267;28;20486;-51
2021/01/11 01:53:53;;;;;;;0.20;0.10;;;;;;;-6.02;100.00;101084.28;5036172;28;20448;-52
2021/01/11 01:56:19;;;;;;;0.20;0.10;;;;;;;-6.01;100.00;101086.94;5029017;28;20932;-51
2021/01/11 01:58:47;;;;;;;0.20;0.10;;;;;;;-5.95;100.00;101091.50;5034352;28;20570;-52
2021/01/11 02:01:13;;;;;;;0.20;0.10;;;;;;;-5.90;100.00;101091.72;5028843;28;20454;-52
2021/01/11 02:03:40;;;;;;;0.20;0.10;;;;;;;-5.91;100.00;101093.44;5041846;28;20949;-51
2021/01/11 02:06:06;;;;;;;0.20;0.10;;;;;;;-6.02;100.00;101092.94;5048774;28;20447;-51
2021/01/11 02:08:53;;;;;;;0.20;0.10;;;;;;;-5.94;100.00;101085.53;5049040;28;20512;-51
2021/01/11 02:11:34;;;;;;;0.20;0.10;;;;;;;-5.96;100.00;101081.97;5045107;28;20447;-51
2021/01/11 02:14:01;;;;;;;0.20;0.10;;;;;;;-6.00;100.00;101082.66;5048141;28;20516;-52
2021/01/11 02:16:38;;;;;;;0.20;0.10;;;;;;;-6.04;100.00;101081.56;5047561;28;20446;-51
2021/01/11 02:19:16;;;;;;;0.20;0.10;;;;;;;-6.06;100.00;101072.84;5046591;28;20941;-53
2021/01/11 02:21:51;;;;;;;0.20;0.10;;;;;;;-6.16;100.00;101070.63;5048143;28;20820;-52
2021/01/11 02:24:44;;;;;;;0.20;0.10;;;;;;;-6.17;100.00;101065.34;5044708;28;20474;-52
2021/01/11 02:27:17;;;;;;;0.20;0.10;;;;;;;-6.00;100.00;101061.94;5048077;28;20455;-51
2021/01/11 02:30:04;;;;;;;0.20;0.10;;;;;;;-6.03;100.00;101057.50;5048330;28;20442;-51
2021/01/11 02:32:30;;;;;;;0.20;0.10;;;;;;;-6.09;100.00;101044.25;5045892;28;20446;-51
2021/01/11 02:35:02;;;;;;;4.47;3.40;;;;;;;-5.96;100.00;101050.94;5041070;28;21001;-51
2021/01/11 02:37:29;;;;;;;0.20;0.10;;;;;;;-6.06;100.00;101048.69;5042995;28;20456;-52
2021/01/11 02:39:55;;;;;;;0.20;0.10;;;;;;;-6.11;100.00;101045.88;5048024;28;20553;-52
2021/01/11 02:42:21;;;;;;;0.20;0.10;;;;;;;-6.09;100.00;101043.38;5046894;28;21018;-52
2021/01/11 02:44:48;;;;;;;0.20;0.10;;;;;;;-6.16;100.00;101051.66;5039908;28;20528;-51
2021/01/11 02:47:22;;;;;;;0.20;0.10;;;;;;;-6.17;100.00;101044.66;5042670;28;20868;-52
2021/01/11 02:49:54;;;;;;;0.20;0.10;;;;;;;-6.09;100.00;101044.25;5041340;28;20934;-51
2021/01/11 02:52:32;;;;;;;0.20;0.10;;;;;;;-6.13;100.00;101042.34;5040676;28;20444;-52
2021/01/11 02:55:06;;;;;;;0.20;0.10;;;;;;;-5.90;100.00;101047.75;5043412;28;21120;-51
2021/01/11 02:58:04;;;;;;;0.20;0.10;;;;;;;-5.82;100.00;101049.88;5041002;28;20439;-52
2021/01/11 03:00:36;;;;;;;0.20;0.10;;;;;;;-5.78;100.00;101043.13;5024345;28;20501;-51
2021/01/11 03:03:05;;;;;;;0.20;0.10;;;;;;;-5.90;100.00;101048.63;5042608;28;20477;-51
2021/01/11 03:05:32;;;;;;;0.20;0.10;;;;;;;-5.66;100.00;101039.44;5040557;28;20476;-52
2021/01/11 03:07:58;;;;;;;0.20;0.10;;;;;;;-5.57;100.00;101030.34;5045223;28;20967;-52
2021/01/11 03:10:25;;;;;;;0.20;0.10;;;;;;;-5.41;100.00;101031.16;5047438;28;20822;-52
2021/01/11 03:12:51;;;;;;;0.20;0.10;;;;;;;-5.32;100.00;101022.06;5042998;28;20450;-52
2021/01/11 03:15:17;;;;;;;0.20;0.10;;;;;;;-5.47;100.00;101030.88;5040071;28;20487;-52
2021/01/11 03:17:44;;;;;;;0.20;0.10;;;;;;;-5.67;100.00;101022.13;5045056;28;20498;-52
2021/01/11 03:20:11;;;;;;;0.20;0.10;;;;;;;-5.79;100.00;101031.00;5047080;28;20540;-51
2021/01/11 03:22:39;;;;;;;0.20;0.10;;;;;;;-5.85;100.00;101015.19;5043446;28;20537;-52
2021/01/11 03:25:07;;;;;;;0.20;0.20;;;;;;;-5.93;100.00;101021.72;5024698;28;20480;-52
2021/01/11 03:27:33;;;;;;;0.20;0.10;;;;;;;-5.98;100.00;101030.16;5043158;28;20447;-51
2021/01/11 03:29:59;;;;;;;0.20;0.10;;;;;;;-6.02;100.00;101028.25;5040173;28;20483;-51
2021/01/11 03:32:26;;;;;;;0.20;0.10;;;;;;;-5.98;100.00;101029.25;5044187;28;20945;-51
2021/01/11 03:34:52;;;;;;;0.20;0.10;;;;;;;-5.94;100.00;101019.94;5047122;28;20495;-52
2021/01/11 03:37:18;;;;;;;0.20;0.10;;;;;;;-5.94;100.00;101032.88;5043013;28;20454;-52
2021/01/11 03:39:45;;;;;;;0.20;0.10;;;;;;;-5.97;100.00;101037.09;5039935;28;20491;-52
2021/01/11 03:42:11;;;;;;;0.20;0.10;;;;;;;-6.06;100.00;101040.91;5038910;28;20505;-52
2021/01/11 03:44:37;;;;;;;0.20;0.10;;;;;;;-5.99;100.00;101035.25;5046478;28;20471;-52
2021/01/11 03:47:03;;;;;;;0.20;0.10;;;;;;;-5.90;100.00;101040.88;5042388;28;20451;-52
2021/01/11 03:49:30;;;;;;;0.20;0.10;;;;;;;-5.88;100.00;101039.22;5039527;28;20451;-52
2021/01/11 03:52:00;;;;;;;0.20;0.10;;;;;;;-5.93;100.00;101040.72;5043848;28;20480;-52
2021/01/11 03:54:28;;;;;;;0.20;0.10;;;;;;;-6.03;100.00;101033.31;5037744;28;20467;-52
2021/01/11 03:56:54;;;;;;;0.20;0.10;;;;;;;-6.13;100.00;101029.41;5041253;28;20482;-52
2021/01/11 03:59:20;;;;;;;0.20;0.10;;;;;;;-6.14;100.00;101027.63;5042951;28;20487;-52
2021/01/11 04:01:47;;;;;;;0.20;0.10;;;;;;;-6.06;100.00;101026.28;5042077;28;20452;-51
2021/01/11 04:04:13;;;;;;;0.20;0.10;;;;;;;-6.23;100.00;101028.84;5046038;28;20522;-51
2021/01/11 04:06:39;;;;;;;0.20;0.10;;;;;;;-6.28;100.00;101020.88;5044400;28;20455;-52
2021/01/11 04:09:05;;;;;;;0.20;0.10;;;;;;;-6.18;100.00;101020.50;5039494;28;20512;-51
2021/01/11 04:11:31;;;;;;;0.20;0.10;;;;;;;-6.23;100.00;101016.81;5041681;28;20451;-52
2021/01/11 04:13:58;;;;;;;0.40;0.37;;;;;;;-6.19;100.00;101010.97;5045810;28;20466;-52
2021/01/11 04:16:24;;;;;;;0.20;0.10;;;;;;;-6.13;100.00;101008.69;5044001;28;20443;-52
2021/01/11 04:18:50;;;;;;;0.20;0.10;;;;;;;-5.81;100.00;101014.53;5038929;28;20490;-51
2021/01/11 04:21:17;;;;;;;0.20;0.10;;;;;;;-6.08;100.00;101014.97;5041823;28;20792;-52
2021/01/11 04:23:43;;;;;;;0.20;0.10;;;;;;;-6.04;100.00;101013.41;5045917;28;20450;-52
2021/01/11 04:26:12;;;;;;;0.10;0.10;;;;;;;-6.03;100.00;101022.97;5043788;28;20886;-52
2021/01/11 04:28:38;;;;;;;0.20;0.10;;;;;;;-6.14;100.00;101017.28;5039509;28;20454;-52
2021/01/11 04:31:05;;;;;;;0.20;0.10;;;;;;;-6.10;100.00;101014.03;5040732;28;20459;-52
2021/01/11 04:33:32;;;;;;;0.20;0.10;;;;;;;-6.12;100.00;101014.75;5045822;28;20451;-51
2021/01/11 04:35:59;;;;;;;0.20;0.10;;;;;;;-5.83;100.00;101024.81;5045916;28;20541;-53
2021/01/11 04:38:25;;;;;;;0.20;0.10;;;;;;;-6.01;100.00;101023.94;5039456;28;20858;-52
2021/01/11 04:40:51;;;;;;;0.20;0.10;;;;;;;-6.05;100.00;101022.88;5039808;28;20932;-52
2021/01/11 04:43:18;;;;;;;0.20;0.10;;;;;;;-6.03;100.00;101021.28;5046057;28;20451;-52
2021/01/11 04:45:45;;;;;;;0.20;0.10;;;;;;;-6.13;100.00;101016.47;5045302;28;20525;-52
2021/01/11 04:48:13;;;;;;;0.20;0.10;;;;;;;-6.13;100.00;101013.00;5039322;28;20472;-52
2021/01/11 04:50:44;;;;;;;0.20;0.10;;;;;;;-6.14;100.00;101012.09;5038955;28;20494;-52
2021/01/11 04:53:11;;;;;;;0.20;0.10;;;;;;;-6.15;100.00;101006.84;5044827;28;20484;-52
2021/01/11 04:55:38;;;;;;;0.20;0.10;;;;;;;-6.22;100.00;101012.53;5045841;28;20466;-51
2021/01/11 04:58:08;;;;;;;0.20;0.10;;;;;;;-6.13;100.00;101002.66;5038098;28;20454;-51
2021/01/11 05:00:37;;;;;;;0.20;0.10;;;;;;;-6.15;100.00;101006.84;5045581;28;21012;-52
2021/01/11 05:03:09;;;;;;;0.20;0.10;;;;;;;-6.00;100.00;100999.84;5040836;28;20504;-52
2021/01/11 05:05:40;;;;;;;0.20;0.10;;;;;;;-5.94;100.00;101000.13;5038541;28;20475;-52
2021/01/11 05:08:07;;;;;;;0.20;0.10;;;;;;;-6.18;100.00;101001.50;5043966;28;20448;-51
2021/01/11 05:10:36;;;;;;;0.20;0.10;;;;;;;-6.20;100.00;101003.13;5049322;28;20447;-51
2021/01/11 05:13:07;;;;;;;0.20;0.10;;;;;;;-6.12;100.00;100991.47;5047377;28;20455;-52
2021/01/11 05:15:38;;;;;;;0.20;0.10;;;;;;;-6.17;100.00;101005.88;5042726;28;20527;-52
2021/01/11 05:18:20;;;;;;;0.20;0.10;;;;;;;-6.36;100.00;101002.38;5043863;28;20454;-52
2021/01/11 05:20:47;;;;;;;0.20;0.10;;;;;;;-6.31;100.00;101005.19;5044262;28;20490;-52
2021/01/11 05:23:15;;;;;;;0.20;0.10;;;;;;;-6.31;100.00;101007.75;5043095;28;20455;-51
2021/01/11 05:25:45;;;;;;;0.20;0.10;;;;;;;-6.27;100.00;100995.09;5047715;28;20886;-52
2021/01/11 05:28:14;;;;;;;0.20;0.10;;;;;;;-6.27;100.00;100992.50;5049453;28;20497;-52
2021/01/11 05:30:45;;;;;;;0.20;0.10;;;;;;;-6.45;100.00;100985.50;5044994;28;20447;-52
2021/01/11 05:33:20;;;;;;;0.20;0.10;;;;;;;-6.40;100.00;100986.63;5042843;28;20530;-52
2021/01/11 05:36:00;;;;;;;0.20;0.10;;;;;;;-6.35;100.00;100988.63;5044995;28;20513;-52
2021/01/11 05:38:51;;;;;;;0.20;0.10;;;;;;;-6.37;100.00;100987.66;5044096;28;20450;-51
2021/01/11 05:41:22;;;;;;;0.20;0.10;;;;;;;-6.34;100.00;100992.97;5042885;28;20488;-52
2021/01/11 05:44:08;;;;;;;0.20;0.10;;;;;;;-6.27;100.00;101000.25;5045557;28;20443;-54
2021/01/11 05:46:35;;;;;;;0.20;0.10;;;;;;;-6.36;100.00;101004.97;5049431;28;20443;-52
2021/01/11 05:49:06;;;;;;;0.20;0.10;;;;;;;-6.42;100.00;101007.25;5049929;28;20538;-52
2021/01/11 05:51:34;;;;;;;0.20;0.10;;;;;;;-5.98;100.00;101003.41;5047391;28;20933;-52
2021/01/11 05:54:01;;;;;;;0.20;0.10;;;;;;;-5.87;100.00;101009.06;5036284;28;20443;-52
2021/01/11 05:56:47;;;;;;;0.20;0.10;;;;;;;-5.85;100.00;101010.03;5047557;28;20972;-52
2021/01/11 05:59:13;;;;;;;0.20;0.20;;;;;;;-5.97;100.00;101011.22;5044313;28;20539;-51
2021/01/11 06:01:39;;;;;;;0.20;0.10;;;;;;;-6.25;100.00;101004.63;5045123;28;20474;-51
2021/01/11 06:04:06;;;;;;;0.20;0.10;;;;;;;-6.39;100.00;101012.56;5048992;28;20471;-51
2021/01/11 06:06:32;;;;;;;0.20;0.10;;;;;;;-6.45;100.00;101009.66;5046064;28;20454;-51
2021/01/11 06:08:58;;;;;;;0.20;0.10;;;;;;;-6.36;100.00;101014.41;5037739;28;20501;-52
2021/01/11 06:11:26;;;;;;;0.20;0.10;;;;;;;-6.33;100.00;101009.38;5035063;28;20822;-51
2021/01/11 06:13:57;;;;;;;0.20;0.17;;;;;;;-6.62;100.00;101011.38;5037097;28;20446;-52
2021/01/11 06:16:28;;;;;;;0.20;0.10;;;;;;;-6.60;100.00;101014.03;5043944;28;20444;-51
2021/01/11 06:18:55;;;;;;;0.20;0.10;;;;;;;-6.53;100.00;101016.16;5048062;28;20829;-52
2021/01/11 06:21:22;;;;;;;0.20;0.10;;;;;;;-6.54;100.00;101022.13;5047284;28;20455;-52
2021/01/11 06:24:14;;;;;;;0.20;0.10;;;;;;;-6.62;100.00;101013.97;5041280;28;20459;-52
2021/01/11 06:26:41;;;;;;;0.20;0.10;;;;;;;-6.66;100.00;101009.47;5041461;28;20482;-51
2021/01/11 06:29:30;;;;;;;0.20;0.10;;;;;;;-6.64;100.00;101017.28;5045830;28;20454;-51
2021/01/11 06:32:15;;;;;;;0.20;0.10;;;;;;;-6.74;100.00;101018.50;5048260;28;20478;-52
2021/01/11 06:34:43;;;;;;;0.20;0.10;;;;;;;-6.62;100.00;101003.63;5048073;28;20987;-52
2021/01/11 06:37:17;;;;;;;0.20;0.10;;;;;;;-6.53;100.00;101003.22;5042650;28;21001;-52
2021/01/11 06:39:46;;;;;;;0.20;0.10;;;;;;;-6.59;100.00;100997.72;5040996;28;20494;-52
2021/01/11 06:42:13;;;;;;;0.20;0.10;;;;;;;-6.54;100.00;100996.28;5040458;28;20452;-51
2021/01/11 06:44:41;;;;;;;0.20;0.10;;;;;;;-6.58;100.00;100986.56;5048913;28;20502;-52
2021/01/11 06:47:09;;;;;;;3.50;3.40;;;;;;;-6.52;100.00;100981.72;5044985;28;20447;-51
2021/01/11 06:49:36;;;;;;;0.20;0.10;;;;;;;-6.63;100.00;100986.34;5040878;28;20438;-51
2021/01/11 06:52:09;;;;;;;0.20;0.10;;;;;;;-6.35;100.00;100990.31;5043229;28;20890;-52
2021/01/11 06:54:41;;;;;;;0.20;0.10;;;;;;;-6.51;100.00;100990.38;5039866;28;20471;-52
2021/01/11 06:57:17;;;;;;;0.20;0.10;;;;;;;-6.49;100.00;100991.34;5041521;28;20453;-51
2021/01/11 06:59:46;;;;;;;0.20;0.10;;;;;;;-6.47;100.00;100984.53;5037921;28;20481;-52
2021/01/11 07:02:20;;;;;;;0.20;0.10;;;;;;;-6.44;100.00;100983.00;5040476;28;20447;-52
2021/01/11 07:04:47;;;;;;;0.20;0.10;;;;;;;-6.34;100.00;100987.81;5044947;28;20471;-52
2021/01/11 07:07:22;;;;;;;0.20;0.10;;;;;;;-6.48;100.00;100982.75;5047644;28;20826;-51
2021/01/11 07:09:50;;;;;;;0.20;0.10;;;;;;;-6.57;100.00;100981.50;5044441;28;20956;-52
2021/01/11 07:12:21;;;;;;;0.20;0.10;;;;;;;-6.49;100.00;100981.00;5040884;28;20451;-52
2021/01/11 07:14:56;;;;;;;0.40;0.40;;;;;;;-6.31;100.00;100984.47;5042772;28;20495;-48
2021/01/11 07:17:41;;;;;;;0.20;0.10;;;;;;;-6.41;100.00;100984.84;5047560;28;20530;-48
2021/01/11 07:20:12;;;;;;;0.20;0.10;;;;;;;-6.34;100.00;100998.16;5047609;28;20838;-48
2021/01/11 07:22:39;;;;;;;0.20;0.10;;;;;;;-6.10;100.00;101015.72;5042993;28;20450;-48
2021/01/11 07:25:07;;;;;;;0.20;0.10;;;;;;;-6.20;100.00;101022.13;5040995;28;20468;-48
2021/01/11 07:27:34;;;;;;;0.20;0.10;;;;;;;-6.42;100.00;101024.47;5044588;28;20505;-48
2021/01/11 07:30:00;;;;;;;0.20;0.10;;;;;;;-6.27;100.00;101023.53;5046956;28;20452;-48
2021/01/11 07:32:30;;;;;;;0.20;0.10;;;;;;;-6.33;100.00;101027.50;5043207;28;20459;-48
2021/01/11 07:35:01;;;;;;;1.80;1.80;;;;;;;-6.38;100.00;101024.69;5040365;28;20467;-47
2021/01/11 07:37:27;;;;;;;0.20;0.10;;;;;;;-6.29;100.00;101022.56;5042771;28;20451;-47
2021/01/11 07:39:54;;;;;;;0.20;0.10;;;;;;;-6.30;100.00;101015.63;5047112;28;20487;-48
2021/01/11 07:42:20;;;;;;;0.20;0.10;;;;;;;-6.37;100.00;101015.22;5044793;28;20540;-48
2021/01/11 07:44:46;;;;;;;0.20;0.10;;;;;;;-6.41;100.00;101016.78;5039540;28;20521;-47
2021/01/11 07:47:15;;;;;;;0.20;0.10;;;;;;;-6.46;100.00;101012.16;5042382;28;20945;-48
2021/01/11 07:49:49;;;;;;;0.20;0.10;;;;;;;-6.47;100.00;101008.69;5046435;28;20455;-48
2021/01/11 07:52:17;;;;;;;0.20;0.10;;;;;;;-6.44;100.00;101014.03;5045761;28;20529;-48
2021/01/11 07:54:45;;;;;;;0.20;0.10;;;;;;;-6.50;100.00;101007.66;5027040;28;20466;-47
2021/01/11 07:57:14;;;;;;;0.20;0.10;;;;;;;-6.37;100.00;101004.88;5039414;28;20463;-48
2021/01/11 07:59:42;;;;;;;0.20;0.10;;;;;;;-6.41;100.00;100996.09;5044869;28;20541;-47
2021/01/11 08:02:15;;;;;;;0.20;0.10;;;;;;;-6.15;100.00;100991.34;5039456;28;20510;-47
2021/01/11 08:04:42;;;;;;;0.20;0.10;;;;;;;-6.10;100.00;100979.50;5044777;28;20479;-48
2021/01/11 08:07:09;;;;;;;0.20;0.10;;;;;;;-6.05;100.00;100985.78;5046319;28;20550;-48
2021/01/11 08:09:37;;;;;;;0.20;0.10;;;;;;;-5.94;100.00;100981.13;5040871;28;20454;-47
2021/01/11 08:12:11;;;;;;;0.20;0.10;;;;;;;-5.76;100.00;100980.28;5039433;28;21362;-48
2021/01/11 08:14:39;;;;;;;0.20;0.20;;;;;;;-5.60;100.00;100991.38;5042305;28;20529;-48
2021/01/11 08:17:13;;;;;;;0.20;0.10;;;;;;;-5.46;100.00;100998.09;5046364;28;20455;-48
2021/01/11 08:19:41;;;;;;;0.20;0.10;;;;;;;-5.32;100.00;100993.56;5043452;28;20486;-48
2021/01/11 08:22:09;;;;;;;0.20;0.10;;;;;;;-5.21;100.00;100997.50;5039419;28;20451;-48
2021/01/11 08:24:41;;;;;;;0.20;0.10;;;;;;;-5.13;100.00;101002.22;5044165;28;20471;-52
2021/01/11 08:27:18;;;;;;;0.20;0.10;;;;;;;-5.03;100.00;101003.53;5055706;28;20474;-52
2021/01/11 08:29:45;;;;;;;0.20;0.10;;;;;;;-4.88;100.00;101004.22;5047641;28;20520;-52
2021/01/11 08:32:14;;;;;;;0.20;0.10;;;;;;;-4.81;100.00;101005.38;5046164;28;20451;-52
2021/01/11 08:34:41;;;;;;;0.20;0.10;;;;;;;-4.77;100.00;100999.53;5045942;28;20987;-51
2021/01/11 08:37:29;;;;;;;0.20;0.10;;;;;;;-4.58;100.00;101006.41;5039321;28;20447;-52
2021/01/11 08:39:57;;;;;;;0.20;0.10;;;;;;;-4.30;100.00;101013.66;5039188;28;20495;-52
2021/01/11 08:42:28;;;;;;;0.20;0.10;;;;;;;-4.25;100.00;101019.91;5034872;28;20860;-53
2021/01/11 08:45:15;;;;;;;0.20;0.10;;;;;;;-4.13;100.00;101015.25;5046206;28;20463;-52
2021/01/11 08:47:41;;;;;;;0.20;0.10;;;;;;;-4.04;100.00;101013.03;5045453;28;20524;-52
2021/01/11 08:50:08;;;;;;;0.20;0.10;;;;;;;-4.00;100.00;101008.84;5040538;28;20477;-52
2021/01/11 08:52:34;;;;;;;0.20;0.10;;;;;;;-3.92;100.00;101010.97;5038210;28;20452;-52
2021/01/11 08:55:14;;;;;;;0.20;0.20;;;;;;;-3.69;100.00;101019.69;5041879;28;20556;-52
2021/01/11 08:57:41;;;;;;;0.73;0.73;;;;;;;-3.57;100.00;101008.88;5037756;28;20443;-52
2021/01/11 09:00:11;;;;;;;0.20;0.10;;;;;;;-3.41;100.00;101019.06;5044557;28;20909;-52
2021/01/11 09:02:45;;;;;;;0.20;0.10;;;;;;;-3.28;100.00;101018.72;5038974;28;20505;-52
2021/01/11 09:05:23;;;;;;;0.20;0.10;;;;;;;-3.25;100.00;101022.28;5040469;28;20521;-52
2021/01/11 09:07:55;;;;;;;0.20;0.10;;;;;;;-3.16;100.00;101018.28;5028131;28;20519;-52
2021/01/11 09:10:27;;;;;;;0.20;0.10;;;;;;;-3.04;100.00;101016.16;5039428;28;20509;-52
2021/01/11 09:12:53;;;;;;;0.20;0.10;;;;;;;-2.92;100.00;101013.13;5027085;28;20483;-52
2021/01/11 09:15:25;;;;;;;0.20;0.10;;;;;;;-2.73;100.00;101009.50;5046124;28;20482;-49
2021/01/11 09:18:03;;;;;;;0.20;0.10;;;;;;;-2.44;100.00;101016.66;5043297;28;20466;-52
2021/01/11 09:20:29;;;;;;;0.20;0.10;;;;;;;-2.72;100.00;101019.97;5039756;28;20567;-52
2021/01/11 09:22:57;;;;;;;0.20;0.10;;;;;;;-2.70;100.00;101014.81;5041946;28;20472;-52
2021/01/11 09:25:23;;;;;;;0.30;0.20;;;;;;;-2.57;100.00;101016.16;5046518;28;20562;-52
2021/01/11 09:27:53;;;;;;;0.20;0.10;;;;;;;-2.69;100.00;101012.28;5044810;28;21010;-52
2021/01/11 09:30:19;;;;;;;0.20;0.10;;;;;;;-2.72;100.00;101009.56;5039241;28;20496;-53
2021/01/11 09:32:45;;;;;;;0.20;0.10;;;;;;;-2.74;100.00;101008.63;5041319;28;20456;-53
2021/01/11 09:35:13;;;;;;;0.20;0.10;;;;;;;-2.65;100.00;101015.88;5046301;28;20467;-52
2021/01/11 09:37:39;;;;;;;0.20;0.10;;;;;;;-2.63;100.00;101015.91;5046566;28;20483;-52
2021/01/11 09:40:06;;;;;;;0.20;0.10;;;;;;;-2.46;100.00;101020.03;5039494;28;20494;-52
2021/01/11 09:42:32;;;;;;;0.20;0.10;;;;;;;-2.40;100.00;101017.63;5035487;28;20452;-52
2021/01/11 09:44:58;;;;;;;0.20;0.10;;;;;;;-2.36;100.00;101022.09;5037940;28;20528;-52
2021/01/11 09:47:25;;;;;;;0.20;0.10;;;;;;;-2.31;100.00;101014.47;5034737;28;20503;-52
2021/01/11 09:49:51;;;;;;;0.20;0.10;;;;;;;-2.23;100.00;101008.69;5043560;28;20443;-52
2021/01/11 09:52:17;;;;;;;0.20;0.10;;;;;;;-2.24;100.00;101006.91;5041026;28;20447;-51
2021/01/11 09:54:44;;;;;;;0.20;0.10;;;;;;;-2.14;100.00;101001.19;5042167;28;20470;-52
2021/01/11 09:57:11;;;;;;;0.20;0.10;;;;;;;-2.12;100.00;100999.53;5042951;28;20510;-52
2021/01/11 09:59:38;;;;;;;0.20;0.10;;;;;;;-1.93;100.00;101003.59;5036234;28;20498;-53
2021/01/11 10:02:04;;;;;;;0.20;0.10;;;;;;;-2.01;100.00;101004.22;5042617;28;20505;-52
2021/01/11 10:04:31;;;;;;;0.20;0.10;;;;;;;-1.92;100.00;101015.84;5048499;28;20985;-52
2021/01/11 10:06:57;;;;;;;0.20;0.10;;;;;;;-1.77;100.00;101012.84;5049866;28;20500;-52
2021/01/11 10:09:25;;;;;;;0.20;0.10;;;;;;;-1.76;100.00;101011.13;5044376;28;20447;-53
2021/01/11 10:11:59;;;;;;;0.20;0.10;;;;;;;-1.55;100.00;101015.28;5042992;28;20455;-52
2021/01/11 10:14:27;;;;;;;0.20;0.10;;;;;;;-1.54;100.00;101017.06;5047223;28;20996;-52
2021/01/11 10:16:53;;;;;;;0.20;0.10;;;;;;;-1.21;100.00;101030.28;5049842;28;20443;-53
2021/01/11 10:19:26;;;;;;;0.27;0.17;;;;;;;-1.24;100.00;101019.72;5045636;28;20508;-52
2021/01/11 10:21:53;;;;;;;0.20;0.10;;;;;;;-1.07;99.94;101017.66;5042868;28;20439;-52
2021/01/11 10:24:21;;;;;;;0.20;0.10;;;;;;;-0.85;100.00;101015.66;5045704;28;20471;-52
2021/01/11 10:26:49;;;;;;;0.67;0.17;;;;;;;-0.50;98.97;101007.13;5049649;28;20452;-53
2021/01/11 10:29:17;;;;;;;0.20;0.10;;;;;;;-0.36;97.96;101000.53;5046842;28;20513;-52
2021/01/11 10:31:44;;;;;;;0.30;0.10;;;;;;;-0.61;99.16;100998.97;5050110;28;20451;-53
2021/01/11 10:34:12;;;;;;;0.20;0.10;;;;;;;-0.60;99.20;100997.25;5050213;28;20472;-53
2021/01/11 10:36:47;;;;;;;0.20;0.10;;;;;;;-0.64;100.00;100985.84;5049362;28;20452;-52
2021/01/11 10:39:14;;;;;;;0.20;0.10;;;;;;;-0.52;100.00;101002.69;5049398;28;20485;-54
2021/01/11 10:41:41;;;;;;;0.20;0.10;;;;;;;-0.35;99.60;100991.84;5042534;28;20473;-53
2021/01/11 10:44:08;;;;;;;0.20;0.10;;;;;;;-0.38;99.67;100988.28;5043854;28;20478;-52
2021/01/11 10:46:35;;;;;;;0.20;0.10;;;;;;;-0.33;99.19;100987.56;5049987;28;20501;-53
2021/01/11 10:49:03;;;;;;;0.20;0.10;;;;;;;-0.29;99.65;100991.13;5048877;28;20458;-53
2021/01/11 10:51:32;;;;;;;0.20;0.10;;;;;;;-0.33;100.00;100984.94;5042383;28;20849;-52
2021/01/11 10:53:58;;;;;;;0.20;0.10;;;;;;;-0.21;98.08;100978.28;5042232;28;20446;-52
2021/01/11 10:56:26;;;;;;;0.20;0.10;;;;;;;-0.16;99.64;100976.66;5048326;28;20447;-52
2021/01/11 10:58:52;;;;;;;0.20;0.10;;;;;;;0.16;99.15;100972.25;5042485;28;20474;-53
2021/01/11 11:01:18;;;;;;;2.30;2.20;;;;;;;0.07;98.49;100962.44;5047202;28;20891;-52
2021/01/11 11:03:45;;;;;;;0.20;0.10;;;;;;;0.15;97.99;100965.28;5049000;28;20893;-53
2021/01/11 11:06:13;;;;;;;0.30;0.10;;;;;;;0.08;98.01;100966.84;5041782;28;20814;-53
2021/01/11 11:08:40;;;;;;;0.20;0.10;;;;;;;0.16;97.40;100951.34;5042432;28;20510;-53
2021/01/11 11:11:06;;;;;;;0.20;0.10;;;;;;;0.16;98.09;100940.91;5046739;28;20944;-53
2021/01/11 11:13:34;;;;;;;0.20;0.10;;;;;;;0.35;98.41;100942.19;5048594;28;20948;-53
2021/01/11 11:16:05;;;;;;;0.20;0.10;;;;;;;0.42;96.96;100946.75;5043342;28;20479;-53
2021/01/11 11:18:35;;;;;;;0.87;0.87;;;;;;;0.41;96.80;100947.56;5043421;28;20443;-52
2021/01/11 11:21:05;;;;;;;0.20;0.10;;;;;;;0.40;97.71;100933.59;5045858;28;20510;-53
2021/01/11 11:23:31;;;;;;;0.20;0.10;;;;;;;0.49;98.10;100930.31;5048302;28;20451;-52
2021/01/11 11:25:58;;;;;;;0.20;0.10;;;;;;;0.58;96.78;100925.31;5045125;28;20553;-53
2021/01/11 11:28:27;;;;;;;0.30;0.20;;;;;;;0.54;97.52;100921.72;5041648;28;20870;-53